Bera, Spain
Current Conditions -  °F | °C
As of 11:30 AM on Saturday 22 Nov 2014 (Local Time) from LESO Reporting Station
Clear Clear  
Wind Chill: 70°   Ceiling: Unl
Heat Index: 70°   Visibility: 6mi
Dew Point: 52°   Wind: 6mph
Humidity: 53%   Direction: 120°ESE
Pressure: 29.94"   Gusts: NA
Location:  43.28°N, 1.69°W
Report Text: LESO 221030Z 12005KT 080V170 CAVOK 21/11 Q1014
Loading
Personal Weather Stations






























Interactive Weather Map New forecast layout! Learn more

10-Day Weather Forecast

Advertisements
Track Severe Weather on mobile